createdAt,value
2018-03-23T00:00:09.134Z,79.44
2018-03-23T00:02:37.239Z,79.29
2018-03-23T00:05:05.983Z,79.28
2018-03-23T00:07:34.087Z,79.26
2018-03-23T00:10:02.178Z,79.15
2018-03-23T00:12:30.300Z,79.82
2018-03-23T00:14:58.407Z,79.39
2018-03-23T00:17:26.503Z,79.40
2018-03-23T00:19:54.599Z,79.23
2018-03-23T00:22:22.700Z,79.28
2018-03-23T00:24:51.104Z,79.00
2018-03-23T00:27:19.495Z,79.01
2018-03-23T00:29:47.582Z,78.80
2018-03-23T00:32:15.838Z,78.63
2018-03-23T00:34:43.930Z,78.30
2018-03-23T00:37:12.943Z,78.08
2018-03-23T00:39:41.054Z,78.26
2018-03-23T00:42:09.151Z,77.85
2018-03-23T00:44:38.337Z,77.78
2018-03-23T00:47:06.442Z,77.91
2018-03-23T00:49:34.584Z,77.85
2018-03-23T00:52:02.666Z,77.45
2018-03-23T00:54:31.014Z,77.16
2018-03-23T00:56:59.970Z,77.10
2018-03-23T00:59:28.167Z,76.78
2018-03-23T01:01:56.251Z,76.46
2018-03-23T01:04:24.367Z,76.33
2018-03-23T01:06:52.459Z,76.20
2018-03-23T01:09:20.551Z,76.00
2018-03-23T01:11:48.642Z,76.15
2018-03-23T01:14:16.767Z,75.30
2018-03-23T01:16:45.620Z,75.31
2018-03-23T01:19:13.711Z,75.04
2018-03-23T01:21:41.835Z,74.53
2018-03-23T01:24:09.916Z,74.16
2018-03-23T01:26:38.002Z,74.23
2018-03-23T01:29:06.135Z,73.72
2018-03-23T01:31:34.210Z,73.22
2018-03-23T01:34:02.315Z,73.19
2018-03-23T01:36:30.445Z,73.36
2018-03-23T01:38:58.513Z,73.28
2018-03-23T01:41:27.285Z,73.37
2018-03-23T01:43:55.395Z,73.65
2018-03-23T01:46:23.770Z,73.67
2018-03-23T01:48:51.919Z,73.78
2018-03-23T01:51:20.034Z,74.17
2018-03-23T01:53:49.031Z,74.03
2018-03-23T01:56:17.781Z,74.08
2018-03-23T01:58:45.925Z,74.02
2018-03-23T02:01:14.007Z,74.49
2018-03-23T02:03:42.109Z,74.43
2018-03-23T02:06:11.170Z,74.43
2018-03-23T02:08:39.247Z,74.48
2018-03-23T02:11:07.571Z,74.34
2018-03-23T02:13:35.690Z,74.68
2018-03-23T02:16:03.773Z,74.58
2018-03-23T02:18:31.875Z,74.37
2018-03-23T02:21:03.727Z,74.51
2018-03-23T02:23:31.811Z,74.45
2018-03-23T02:26:00.285Z,74.71
2018-03-23T02:28:29.570Z,74.40
2018-03-23T02:30:57.668Z,74.80
2018-03-23T02:33:26.365Z,74.66
2018-03-23T02:35:55.107Z,74.24
2018-03-23T02:38:23.207Z,74.09
2018-03-23T02:40:51.324Z,74.30
2018-03-23T02:43:19.455Z,73.87
2018-03-23T02:45:48.343Z,73.88
2018-03-23T02:48:17.070Z,74.40
2018-03-23T02:50:45.892Z,74.12
2018-03-23T02:53:14.032Z,74.03
2018-03-23T02:55:42.122Z,73.75
2018-03-23T02:58:10.261Z,73.59
2018-03-23T03:00:38.412Z,73.60
2018-03-23T03:03:06.532Z,73.63
2018-03-23T03:05:34.610Z,73.85
2018-03-23T03:08:02.731Z,73.51
2018-03-23T03:10:31.171Z,73.89
2018-03-23T03:12:59.265Z,73.76
2018-03-23T03:15:27.378Z,74.24
2018-03-23T03:17:55.501Z,74.19
2018-03-23T03:20:23.591Z,74.12
2018-03-23T03:22:51.696Z,74.03
2018-03-23T03:25:19.790Z,74.31
2018-03-23T03:27:48.643Z,74.22
2018-03-23T03:30:16.784Z,73.99
2018-03-23T03:32:44.888Z,74.11
2018-03-23T03:35:13.157Z,73.70
2018-03-23T03:37:41.304Z,73.49
2018-03-23T03:40:09.883Z,73.58
2018-03-23T03:42:37.995Z,73.33
2018-03-23T03:45:06.106Z,73.16
2018-03-23T03:47:34.231Z,73.25
2018-03-23T03:50:02.431Z,72.46
2018-03-23T03:52:30.524Z,72.52
2018-03-23T03:54:58.827Z,72.34
2018-03-23T03:57:26.969Z,72.10
2018-03-23T03:59:55.969Z,71.62
2018-03-23T04:02:24.449Z,71.68
2018-03-23T04:04:52.812Z,71.56
2018-03-23T04:20:20.927Z,72.10
2018-03-23T04:22:49.037Z,72.08
2018-03-23T04:25:17.145Z,71.78
2018-03-23T04:27:45.242Z,71.86
2018-03-23T04:30:13.573Z,71.65
2018-03-23T04:32:41.687Z,71.49
2018-03-23T04:35:09.783Z,71.21
2018-03-23T04:37:42.883Z,71.02
2018-03-23T04:40:10.993Z,70.86
2018-03-23T04:42:39.435Z,71.13
2018-03-23T04:45:07.547Z,71.23
2018-03-23T04:47:35.705Z,71.11
2018-03-23T04:50:03.826Z,70.71
2018-03-23T04:52:32.149Z,70.81
2018-03-23T04:55:00.505Z,70.78
2018-03-23T04:57:28.643Z,70.74
2018-03-23T04:59:56.743Z,70.88
2018-03-23T05:02:25.812Z,70.85
2018-03-23T05:04:54.547Z,70.77
2018-03-23T05:07:22.646Z,70.95
2018-03-23T05:09:50.748Z,70.46
2018-03-23T05:25:19.803Z,71.22
2018-03-23T05:27:47.887Z,71.01
2018-03-23T05:30:15.989Z,70.99
2018-03-23T05:32:44.109Z,71.32
2018-03-23T05:35:12.201Z,71.30
2018-03-23T05:37:40.308Z,71.19
2018-03-23T05:40:09.229Z,71.09
2018-03-23T05:42:37.993Z,71.09
2018-03-23T05:45:06.084Z,71.65
2018-03-23T05:47:34.209Z,71.14
2018-03-23T05:50:02.322Z,70.95
2018-03-23T05:52:30.645Z,71.39
2018-03-23T05:54:58.745Z,71.30
2018-03-23T05:57:26.908Z,71.13
2018-03-23T05:59:55.043Z,71.09
2018-03-23T06:02:23.103Z,71.27
2018-03-23T06:04:51.205Z,71.30
2018-03-23T06:07:19.347Z,71.33
2018-03-23T06:09:47.452Z,70.57
2018-03-23T06:12:15.891Z,70.49
2018-03-23T06:14:43.993Z,70.73
2018-03-23T06:17:12.559Z,70.58
2018-03-23T06:19:40.656Z,70.50
2018-03-23T06:22:08.791Z,70.23
2018-03-23T06:24:36.899Z,70.41
2018-03-23T06:27:05.007Z,70.76
2018-03-23T06:29:33.123Z,70.86
2018-03-23T06:32:01.239Z,70.33
2018-03-23T06:34:29.318Z,69.87
2018-03-23T06:36:57.441Z,69.73
2018-03-23T06:39:25.574Z,69.84
2018-03-23T06:41:54.665Z,69.65
2018-03-23T06:44:22.795Z,69.76
2018-03-23T06:46:50.905Z,69.46
2018-03-23T06:49:19.013Z,69.46
2018-03-23T06:54:21.661Z,69.45
2018-03-23T06:56:50.719Z,69.46
2018-03-23T06:59:18.831Z,69.41
2018-03-23T07:01:46.947Z,69.40
2018-03-23T07:04:15.061Z,69.23
2018-03-23T07:06:43.157Z,69.01
2018-03-23T07:09:12.171Z,69.11
2018-03-23T07:11:40.299Z,69.29
2018-03-23T07:14:08.393Z,69.60
2018-03-23T07:16:36.508Z,69.01
2018-03-23T07:19:05.117Z,68.69
2018-03-23T07:21:33.189Z,68.80
2018-03-23T07:24:01.309Z,68.98
2018-03-23T07:26:29.429Z,68.18
2018-03-23T07:28:57.513Z,68.26
2018-03-23T07:31:25.625Z,67.07
2018-03-23T07:33:53.722Z,67.15
2018-03-23T07:36:21.820Z,67.29
2018-03-23T07:38:49.930Z,66.78
2018-03-23T07:41:18.025Z,66.95
2018-03-23T07:43:46.112Z,66.45
2018-03-23T07:46:14.235Z,66.28
2018-03-23T07:48:42.378Z,65.89
2018-03-23T07:51:10.473Z,66.25
2018-03-23T07:53:38.601Z,66.53
2018-03-23T07:56:06.954Z,66.79
2018-03-23T07:58:35.059Z,66.05
2018-03-23T08:01:03.312Z,65.77
2018-03-23T08:03:31.394Z,65.12
2018-03-23T08:05:59.494Z,65.09
2018-03-23T08:08:27.611Z,65.20
2018-03-23T08:10:55.708Z,64.50
2018-03-23T08:13:23.797Z,64.09
2018-03-23T08:15:51.893Z,63.94
2018-03-23T08:18:20.028Z,63.75
2018-03-23T08:20:48.204Z,63.87
2018-03-23T08:23:16.266Z,63.88
2018-03-23T08:25:44.377Z,64.60
2018-03-23T08:28:12.475Z,62.99
2018-03-23T08:30:40.575Z,62.65
2018-03-23T08:33:08.674Z,62.76
2018-03-23T08:35:36.776Z,62.49
2018-03-23T08:38:04.900Z,61.80
2018-03-23T08:40:32.997Z,62.38
2018-03-23T08:43:01.099Z,61.52
2018-03-23T08:45:29.233Z,61.93
2018-03-23T08:47:57.320Z,61.42
2018-03-23T08:50:25.414Z,61.22
2018-03-23T08:52:53.520Z,61.80
2018-03-23T08:55:21.704Z,61.27
2018-03-23T08:57:49.785Z,61.27
2018-03-23T09:02:50.879Z,60.42
2018-03-23T09:05:19.008Z,61.07
2018-03-23T09:07:48.010Z,60.24
2018-03-23T09:10:16.108Z,60.01
2018-03-23T09:12:44.324Z,59.58
2018-03-23T09:15:12.410Z,59.49
2018-03-23T09:17:40.531Z,59.32
2018-03-23T09:20:08.654Z,59.55
2018-03-23T09:22:36.773Z,59.38
2018-03-23T09:25:04.870Z,59.23
2018-03-23T09:27:32.966Z,59.63
2018-03-23T09:30:01.078Z,59.49
2018-03-23T09:32:29.338Z,59.09
2018-03-23T09:34:57.441Z,59.50
2018-03-23T09:37:25.534Z,59.77
2018-03-23T09:39:53.728Z,60.11
2018-03-23T09:42:21.810Z,60.40
2018-03-23T09:44:49.928Z,60.34
2018-03-23T09:47:18.020Z,59.99
2018-03-23T09:49:46.121Z,59.71
2018-03-23T09:52:14.530Z,59.59
2018-03-23T09:54:43.106Z,60.14
2018-03-23T10:10:11.494Z,59.16
2018-03-23T10:12:40.214Z,58.53
2018-03-23T10:15:08.322Z,58.75
2018-03-23T10:17:36.430Z,59.34
2018-03-23T10:20:04.536Z,59.03
2018-03-23T10:22:32.638Z,59.63
2018-03-23T10:25:00.767Z,59.03
2018-03-23T10:27:28.924Z,58.35
2018-03-23T10:29:57.036Z,58.56
2018-03-23T10:32:25.118Z,58.30
2018-03-23T10:34:54.138Z,57.88
2018-03-23T10:37:22.222Z,58.62
2018-03-23T10:39:50.362Z,58.88
2018-03-23T10:42:18.451Z,58.34
2018-03-23T10:44:47.385Z,58.52
2018-03-23T10:47:15.469Z,58.12
2018-03-23T10:49:43.578Z,59.06
2018-03-23T10:52:11.695Z,58.72
2018-03-23T10:54:39.835Z,58.79
2018-03-23T10:57:07.910Z,58.65
2018-03-23T10:59:36.392Z,58.83
2018-03-23T11:02:07.320Z,59.09
2018-03-23T11:04:35.426Z,58.90
2018-03-23T11:07:03.534Z,59.02
2018-03-23T11:09:31.645Z,59.11
2018-03-23T11:11:59.772Z,59.43
2018-03-23T11:14:27.868Z,59.07
2018-03-23T11:16:55.954Z,59.22
2018-03-23T11:19:24.538Z,59.76
2018-03-23T11:21:52.640Z,59.77
2018-03-23T11:24:20.772Z,59.91
2018-03-23T11:26:48.851Z,60.21
2018-03-23T11:29:16.998Z,60.09
2018-03-23T11:31:45.096Z,59.88
2018-03-23T11:34:13.189Z,60.39
2018-03-23T11:36:41.316Z,60.20
2018-03-23T11:39:09.714Z,59.70
2018-03-23T11:41:37.806Z,60.37
2018-03-23T11:44:05.948Z,60.02
2018-03-23T11:46:34.159Z,60.27
2018-03-23T11:49:02.309Z,60.61
2018-03-23T11:51:30.441Z,60.72
2018-03-23T11:53:58.538Z,61.35
2018-03-23T11:56:26.689Z,61.04
2018-03-23T11:58:54.790Z,61.49
2018-03-23T12:01:22.918Z,61.63
2018-03-23T12:03:50.990Z,61.22
2018-03-23T12:06:19.892Z,61.30
2018-03-23T12:08:47.994Z,61.13
2018-03-23T12:11:16.096Z,61.19
2018-03-23T12:13:44.206Z,61.21
2018-03-23T12:16:12.384Z,61.46
2018-03-23T12:18:40.590Z,61.29
2018-03-23T12:21:09.000Z,61.43
2018-03-23T12:23:37.322Z,61.21
2018-03-23T12:26:05.411Z,61.50
2018-03-23T12:28:33.565Z,62.05
2018-03-23T12:31:02.392Z,61.88
2018-03-23T12:33:30.481Z,61.69
2018-03-23T12:35:58.632Z,62.23
2018-03-23T12:38:26.784Z,62.13
2018-03-23T12:40:54.917Z,62.12
2018-03-23T12:43:23.032Z,62.81
2018-03-23T12:45:51.133Z,63.49
2018-03-23T12:48:20.220Z,64.55
2018-03-23T12:50:48.343Z,64.88
2018-03-23T12:53:16.398Z,65.04
2018-03-23T12:55:44.511Z,65.14
2018-03-23T12:58:12.713Z,65.54
2018-03-23T13:00:41.670Z,64.99
2018-03-23T13:03:09.783Z,64.75
2018-03-23T13:05:37.881Z,64.25
2018-03-23T13:08:06.263Z,64.40
2018-03-23T13:10:36.003Z,64.10
2018-03-23T13:13:04.109Z,64.17
2018-03-23T13:15:32.214Z,63.93
2018-03-23T13:18:00.336Z,64.04
2018-03-23T13:20:28.434Z,64.03
2018-03-23T13:22:56.566Z,64.00
2018-03-23T13:25:24.693Z,64.79
2018-03-23T13:27:52.822Z,64.30
2018-03-23T13:30:20.994Z,64.29
2018-03-23T13:32:49.068Z,64.73
2018-03-23T13:35:17.195Z,64.63
2018-03-23T13:37:45.314Z,64.95
2018-03-23T13:40:13.486Z,64.77
2018-03-23T13:42:41.654Z,64.77
2018-03-23T13:45:09.742Z,64.90
2018-03-23T13:47:37.844Z,64.85
2018-03-23T13:50:05.974Z,65.12
2018-03-23T13:52:34.098Z,64.71
2018-03-23T13:55:02.564Z,64.73
2018-03-23T13:57:31.206Z,64.81
2018-03-23T13:59:59.376Z,64.53
2018-03-23T14:02:27.490Z,64.83
2018-03-23T14:04:55.930Z,65.48
2018-03-23T14:07:24.004Z,65.74
2018-03-23T14:09:52.146Z,65.37
2018-03-23T14:12:21.030Z,65.81
2018-03-23T14:14:49.132Z,65.70
2018-03-23T14:17:17.237Z,65.89
2018-03-23T14:19:45.330Z,66.31
2018-03-23T14:22:14.224Z,66.33
2018-03-23T14:24:42.344Z,66.14
2018-03-23T14:27:10.442Z,66.16
2018-03-23T14:29:38.591Z,66.15
2018-03-23T14:32:06.708Z,66.13
2018-03-23T14:34:35.626Z,66.02
2018-03-23T14:37:03.746Z,66.36
2018-03-23T14:39:31.822Z,66.53
2018-03-23T14:41:59.959Z,67.08
2018-03-23T14:44:28.778Z,67.05
2018-03-23T14:46:56.921Z,67.09
2018-03-23T14:49:25.744Z,67.01
2018-03-23T14:51:53.843Z,67.18
2018-03-23T14:54:21.946Z,67.37
2018-03-23T14:56:50.075Z,68.31
2018-03-23T14:59:18.176Z,68.34
2018-03-23T15:01:46.322Z,68.59
2018-03-23T15:04:14.414Z,68.89
2018-03-23T15:06:42.635Z,68.89
2018-03-23T15:09:16.982Z,69.30
2018-03-23T15:11:50.527Z,69.89
2018-03-23T15:14:19.410Z,70.39
2018-03-23T15:16:47.782Z,70.68
2018-03-23T15:19:15.945Z,70.89
2018-03-23T15:21:44.102Z,71.41
2018-03-23T15:24:12.190Z,71.68
2018-03-23T15:26:41.242Z,71.99
2018-03-23T15:29:09.371Z,72.23
2018-03-23T15:31:37.484Z,72.58
2018-03-23T15:34:06.086Z,72.57
2018-03-23T15:36:34.213Z,72.87
2018-03-23T15:39:02.313Z,73.15
2018-03-23T15:41:30.452Z,73.63
2018-03-23T15:43:59.242Z,73.90
2018-03-23T15:46:27.336Z,73.77
2018-03-23T15:48:55.461Z,73.88
2018-03-23T15:51:24.245Z,73.91
2018-03-23T15:53:52.332Z,73.83
2018-03-23T15:56:21.322Z,73.94
2018-03-23T15:58:49.400Z,73.92
2018-03-23T16:01:17.535Z,73.69
2018-03-23T16:03:45.682Z,73.69
2018-03-23T16:06:13.765Z,73.99
2018-03-23T16:08:42.660Z,73.71
2018-03-23T16:11:11.510Z,73.55
2018-03-23T16:13:39.607Z,73.54
2018-03-23T16:16:07.707Z,73.69
2018-03-23T16:18:35.878Z,73.72
2018-03-23T16:21:04.068Z,73.51
2018-03-23T16:23:32.442Z,73.44
2018-03-23T16:26:00.536Z,73.54
2018-03-23T16:28:28.643Z,73.54
2018-03-23T16:30:56.748Z,73.39
2018-03-23T16:33:24.873Z,73.06
2018-03-23T16:35:52.976Z,72.73
2018-03-23T16:38:21.225Z,72.76
2018-03-23T16:40:49.411Z,72.50
2018-03-23T16:43:17.516Z,72.33
2018-03-23T16:45:45.797Z,72.48
2018-03-23T16:48:13.941Z,72.51
2018-03-23T16:50:42.079Z,72.48
2018-03-23T16:53:10.877Z,71.99
2018-03-23T17:08:39.067Z,71.81
2018-03-23T17:11:07.661Z,71.57
2018-03-23T17:13:35.909Z,71.52
2018-03-23T17:16:04.066Z,71.50
2018-03-23T17:18:32.185Z,71.30
2018-03-23T17:21:00.350Z,71.34
2018-03-23T17:23:28.572Z,71.34
2018-03-23T17:25:57.107Z,71.39
2018-03-23T17:28:25.200Z,71.61
2018-03-23T17:30:53.394Z,71.64
2018-03-23T17:46:21.517Z,71.74
2018-03-23T17:48:49.826Z,71.66
2018-03-23T17:51:18.047Z,71.90
2018-03-23T17:53:46.211Z,71.83
2018-03-23T17:56:14.412Z,71.77
2018-03-23T17:58:47.446Z,71.59
2018-03-23T18:01:15.755Z,71.68
2018-03-23T18:03:43.869Z,71.76
2018-03-23T18:06:11.986Z,71.48
2018-03-23T18:08:40.344Z,71.48
2018-03-23T18:11:08.459Z,71.54
2018-03-23T18:13:36.552Z,71.59
2018-03-23T18:16:04.701Z,71.76
2018-03-23T18:18:33.275Z,71.81
2018-03-23T18:21:01.641Z,71.81
2018-03-23T18:23:29.970Z,71.86
2018-03-23T18:25:58.293Z,71.77
2018-03-23T18:28:26.602Z,71.84
2018-03-23T18:30:54.917Z,71.84
2018-03-23T18:33:23.272Z,71.79
2018-03-23T18:35:51.441Z,71.69
2018-03-23T18:38:19.599Z,71.55
2018-03-23T18:40:47.932Z,71.57
2018-03-23T18:43:17.404Z,71.76
2018-03-23T18:45:45.529Z,71.78
2018-03-23T18:48:14.421Z,71.75
2018-03-23T18:50:42.503Z,71.90
2018-03-23T18:53:10.841Z,72.27
2018-03-23T18:55:39.008Z,72.29
2018-03-23T18:58:07.355Z,72.34
2018-03-23T19:00:35.849Z,72.23
2018-03-23T19:03:04.555Z,72.09
2018-03-23T19:05:33.108Z,72.25
2018-03-23T19:08:01.461Z,72.14
2018-03-23T19:10:30.626Z,72.13
2018-03-23T19:12:58.741Z,72.12
2018-03-23T19:15:26.908Z,72.42
2018-03-23T19:17:55.159Z,72.49
2018-03-23T19:20:23.281Z,72.49
2018-03-23T19:22:51.601Z,72.47
2018-03-23T19:25:19.958Z,72.55
2018-03-23T19:27:48.230Z,72.55
2018-03-23T19:30:16.382Z,72.58
2018-03-23T19:32:44.666Z,72.61
2018-03-23T19:35:13.033Z,72.55
2018-03-23T19:37:43.103Z,72.50
2018-03-23T19:40:11.205Z,72.55
2018-03-23T19:42:40.215Z,72.52
2018-03-23T19:45:08.358Z,72.42
2018-03-23T19:47:36.642Z,72.44
2018-03-23T19:50:05.016Z,72.53
2018-03-23T19:52:33.145Z,72.54
2018-03-23T19:55:01.548Z,72.74
2018-03-23T19:57:29.963Z,73.06
2018-03-23T19:59:58.395Z,73.09
2018-03-23T20:02:26.665Z,73.32
2018-03-23T20:04:54.863Z,73.50
2018-03-23T20:20:28.677Z,73.72
2018-03-23T20:22:56.811Z,73.72
2018-03-23T20:25:25.295Z,73.69
2018-03-23T20:28:00.202Z,73.66
2018-03-23T20:30:28.296Z,73.57
2018-03-23T20:32:57.126Z,73.75
2018-03-23T20:35:25.265Z,73.72
2018-03-23T20:37:53.366Z,73.83
2018-03-23T20:40:21.499Z,73.85
2018-03-23T20:42:49.639Z,73.75
2018-03-23T20:45:17.761Z,73.70
2018-03-23T20:47:45.899Z,73.68
2018-03-23T20:50:14.035Z,73.62
2018-03-23T20:52:42.166Z,73.68
2018-03-23T20:55:10.266Z,73.75
2018-03-23T20:57:38.988Z,73.57
2018-03-23T21:00:07.198Z,73.81
2018-03-23T21:02:35.496Z,73.81
2018-03-23T21:05:03.698Z,73.96
2018-03-23T21:07:31.938Z,74.13
2018-03-23T21:10:00.133Z,74.30
2018-03-23T21:12:28.191Z,74.30
2018-03-23T21:14:56.408Z,74.27
2018-03-23T21:17:29.488Z,74.44
2018-03-23T21:19:57.586Z,74.47
2018-03-23T21:25:01.251Z,74.56
2018-03-23T21:27:29.370Z,74.54
2018-03-23T21:29:57.483Z,74.62
2018-03-23T21:32:26.295Z,74.60
2018-03-23T21:34:54.489Z,74.62
2018-03-23T21:37:22.624Z,74.56
2018-03-23T21:39:50.832Z,74.49
2018-03-23T21:42:18.958Z,74.50
2018-03-23T21:44:47.153Z,74.67
2018-03-23T21:47:15.246Z,74.73
2018-03-23T21:49:43.347Z,74.62
2018-03-23T21:52:11.466Z,74.60
2018-03-23T21:54:39.580Z,74.78
2018-03-23T21:57:07.675Z,74.97
2018-03-23T21:59:35.772Z,74.91
2018-03-23T22:02:03.890Z,75.01
2018-03-23T22:04:31.994Z,74.86
2018-03-23T22:07:00.098Z,74.19
2018-03-23T22:09:28.197Z,74.06
2018-03-23T22:11:56.328Z,73.90
2018-03-23T22:14:24.418Z,74.19
2018-03-23T22:16:52.514Z,74.12
2018-03-23T22:19:20.641Z,74.16
2018-03-23T22:21:48.746Z,73.96
2018-03-23T22:24:16.846Z,73.81
2018-03-23T22:26:44.958Z,73.92
2018-03-23T22:29:13.100Z,73.96
2018-03-23T22:31:41.213Z,74.02
2018-03-23T22:34:09.606Z,73.94
2018-03-23T22:36:37.690Z,73.87
2018-03-23T22:39:05.796Z,73.96
2018-03-23T22:41:35.039Z,73.73
2018-03-23T22:44:03.140Z,73.52
2018-03-23T22:46:31.294Z,73.40
2018-03-23T22:49:00.446Z,73.48
2018-03-23T22:51:28.574Z,73.59
2018-03-23T22:53:56.737Z,73.25
2018-03-23T22:56:24.836Z,73.37
2018-03-23T22:58:52.934Z,73.03
2018-03-23T23:01:21.042Z,72.83
2018-03-23T23:03:49.158Z,72.83
2018-03-23T23:06:17.252Z,72.71
2018-03-23T23:08:45.352Z,72.65
2018-03-23T23:11:13.460Z,72.77
2018-03-23T23:13:41.571Z,73.02
2018-03-23T23:16:09.649Z,73.06
2018-03-23T23:18:37.764Z,72.95
2018-03-23T23:21:05.873Z,72.83
2018-03-23T23:23:33.950Z,72.83
2018-03-23T23:26:02.070Z,72.77
2018-03-23T23:28:30.412Z,72.73
2018-03-23T23:30:58.510Z,72.46
2018-03-23T23:33:26.747Z,72.42
2018-03-23T23:35:54.842Z,72.27
2018-03-23T23:38:22.930Z,72.25
2018-03-23T23:40:51.095Z,72.42
2018-03-23T23:43:19.167Z,72.44
2018-03-23T23:45:47.270Z,72.52
2018-03-23T23:48:15.392Z,72.49
2018-03-23T23:50:43.495Z,72.19
2018-03-23T23:53:11.643Z,72.20
2018-03-23T23:55:39.723Z,72.15
2018-03-23T23:58:07.821Z,71.99
